sensor_id;sensor_type;location;lat;lon;timestamp;pressure;altitude;pressure_sealevel;temperature;humidity
46642;BME280;32370;41.864;-88.124;2022-09-03T00:00:32;98986.32;;;26.77;50.97
46642;BME280;32370;41.864;-88.124;2022-09-03T00:03:03;98989.88;;;26.77;51.24
46642;BME280;32370;41.864;-88.124;2022-09-03T00:05:38;98993.17;;;27.08;51.30
46642;BME280;32370;41.864;-88.124;2022-09-03T00:08:11;98995.49;;;26.80;51.58
46642;BME280;32370;41.864;-88.124;2022-09-03T00:10:46;98995.51;;;26.73;52.40
46642;BME280;32370;41.864;-88.124;2022-09-03T00:13:21;98997.14;;;26.23;53.15
46642;BME280;32370;41.864;-88.124;2022-09-03T00:15:50;98999.83;;;25.91;53.24
46642;BME280;32370;41.864;-88.124;2022-09-03T00:18:22;98995.73;;;25.97;53.69
46642;BME280;32370;41.864;-88.124;2022-09-03T00:20:55;98997.44;;;26.14;53.32
46642;BME280;32370;41.864;-88.124;2022-09-03T00:23:27;98994.28;;;26.36;53.29
46642;BME280;32370;41.864;-88.124;2022-09-03T00:25:59;98991.50;;;26.30;53.56
46642;BME280;32370;41.864;-88.124;2022-09-03T00:28:34;98990.64;;;26.19;53.74
46642;BME280;32370;41.864;-88.124;2022-09-03T00:31:10;98990.05;;;25.78;54.10
46642;BME280;32370;41.864;-88.124;2022-09-03T00:33:42;98985.82;;;25.92;54.39
46642;BME280;32370;41.864;-88.124;2022-09-03T00:36:15;98984.58;;;25.86;54.60
46642;BME280;32370;41.864;-88.124;2022-09-03T00:38:45;98983.26;;;25.93;54.33
46642;BME280;32370;41.864;-88.124;2022-09-03T00:41:22;98986.67;;;25.91;54.35
46642;BME280;32370;41.864;-88.124;2022-09-03T00:44:11;98987.70;;;25.28;55.77
46642;BME280;32370;41.864;-88.124;2022-09-03T00:46:46;98990.39;;;25.41;55.87
46642;BME280;32370;41.864;-88.124;2022-09-03T00:49:25;98993.83;;;25.89;55.75
46642;BME280;32370;41.864;-88.124;2022-09-03T00:52:00;98995.85;;;25.22;56.44
46642;BME280;32370;41.864;-88.124;2022-09-03T00:54:34;98991.28;;;24.96;56.27
46642;BME280;32370;41.864;-88.124;2022-09-03T00:57:16;98995.21;;;25.12;56.66
46642;BME280;32370;41.864;-88.124;2022-09-03T00:59:54;98999.16;;;25.00;57.08
46642;BME280;32370;41.864;-88.124;2022-09-03T01:02:30;98999.46;;;24.94;58.33
46642;BME280;32370;41.864;-88.124;2022-09-03T01:05:09;99003.48;;;25.18;57.96
46642;BME280;32370;41.864;-88.124;2022-09-03T01:07:42;99001.28;;;24.74;57.69
46642;BME280;32370;41.864;-88.124;2022-09-03T01:10:23;99003.09;;;25.09;58.02
46642;BME280;32370;41.864;-88.124;2022-09-03T01:12:58;99002.13;;;24.74;58.58
46642;BME280;32370;41.864;-88.124;2022-09-03T01:15:33;99007.75;;;24.40;59.00
46642;BME280;32370;41.864;-88.124;2022-09-03T01:18:14;99008.58;;;24.36;59.02
46642;BME280;32370;41.864;-88.124;2022-09-03T01:20:54;99009.97;;;24.87;58.61
46642;BME280;32370;41.864;-88.124;2022-09-03T01:23:37;99012.10;;;24.81;58.70
46642;BME280;32370;41.864;-88.124;2022-09-03T01:26:21;99014.28;;;24.66;59.27
46642;BME280;32370;41.864;-88.124;2022-09-03T01:29:02;99016.08;;;24.82;59.46
46642;BME280;32370;41.864;-88.124;2022-09-03T01:31:40;99017.65;;;24.42;60.06
46642;BME280;32370;41.864;-88.124;2022-09-03T01:34:19;99022.45;;;23.83;62.81
46642;BME280;32370;41.864;-88.124;2022-09-03T01:36:55;99024.21;;;23.65;64.43
46642;BME280;32370;41.864;-88.124;2022-09-03T01:39:32;99026.43;;;23.60;63.56
46642;BME280;32370;41.864;-88.124;2022-09-03T01:42:14;99032.07;;;23.62;63.33
46642;BME280;32370;41.864;-88.124;2022-09-03T01:45:00;99036.58;;;23.65;63.22
46642;BME280;32370;41.864;-88.124;2022-09-03T01:47:36;99041.30;;;23.80;62.79
46642;BME280;32370;41.864;-88.124;2022-09-03T01:50:13;99040.98;;;24.31;62.81
46642;BME280;32370;41.864;-88.124;2022-09-03T01:52:48;99041.42;;;23.91;63.09
46642;BME280;32370;41.864;-88.124;2022-09-03T01:55:27;99037.83;;;23.83;63.22
46642;BME280;32370;41.864;-88.124;2022-09-03T01:58:01;99037.87;;;23.69;63.60
46642;BME280;32370;41.864;-88.124;2022-09-03T02:00:33;99041.02;;;23.54;63.99
46642;BME280;32370;41.864;-88.124;2022-09-03T02:03:04;99048.03;;;23.66;64.38
46642;BME280;32370;41.864;-88.124;2022-09-03T02:05:33;99048.45;;;23.87;64.73
46642;BME280;32370;41.864;-88.124;2022-09-03T02:08:03;99050.38;;;23.60;65.13
46642;BME280;32370;41.864;-88.124;2022-09-03T02:10:36;99049.88;;;23.44;65.80
46642;BME280;32370;41.864;-88.124;2022-09-03T02:13:09;99047.29;;;23.18;66.37
46642;BME280;32370;41.864;-88.124;2022-09-03T02:15:40;99042.03;;;23.04;66.92
46642;BME280;32370;41.864;-88.124;2022-09-03T02:18:14;99035.45;;;22.91;67.39
46642;BME280;32370;41.864;-88.124;2022-09-03T02:20:43;99035.82;;;22.75;68.24
46642;BME280;32370;41.864;-88.124;2022-09-03T02:23:11;99039.28;;;22.75;67.94
46642;BME280;32370;41.864;-88.124;2022-09-03T02:25:42;99044.04;;;22.99;68.11
46642;BME280;32370;41.864;-88.124;2022-09-03T02:28:12;99047.21;;;22.53;69.09
46642;BME280;32370;41.864;-88.124;2022-09-03T02:30:40;99047.25;;;22.53;69.15
46642;BME280;32370;41.864;-88.124;2022-09-03T02:33:09;99048.23;;;22.76;69.46
46642;BME280;32370;41.864;-88.124;2022-09-03T02:35:38;99048.95;;;22.45;69.86
46642;BME280;32370;41.864;-88.124;2022-09-03T02:38:10;99053.77;;;22.64;70.59
46642;BME280;32370;41.864;-88.124;2022-09-03T02:40:38;99054.54;;;22.64;70.70
46642;BME280;32370;41.864;-88.124;2022-09-03T02:43:12;99058.95;;;22.37;70.86
46642;BME280;32370;41.864;-88.124;2022-09-03T02:45:46;99061.24;;;22.62;70.13
46642;BME280;32370;41.864;-88.124;2022-09-03T02:48:18;99064.68;;;21.92;73.12
46642;BME280;32370;41.864;-88.124;2022-09-03T02:50:46;99064.28;;;22.19;72.89
46642;BME280;32370;41.864;-88.124;2022-09-03T02:53:14;99064.50;;;22.67;71.56
46642;BME280;32370;41.864;-88.124;2022-09-03T02:55:43;99064.59;;;22.47;71.25
46642;BME280;32370;41.864;-88.124;2022-09-03T02:58:10;99067.67;;;22.69;71.19
46642;BME280;32370;41.864;-88.124;2022-09-03T03:00:38;99071.15;;;22.51;71.80
46642;BME280;32370;41.864;-88.124;2022-09-03T03:03:06;99071.21;;;22.54;71.48
46642;BME280;32370;41.864;-88.124;2022-09-03T03:05:40;99072.12;;;22.56;71.38
46642;BME280;32370;41.864;-88.124;2022-09-03T03:08:09;99071.12;;;22.31;71.56
46642;BME280;32370;41.864;-88.124;2022-09-03T03:10:36;99070.45;;;22.27;72.51
46642;BME280;32370;41.864;-88.124;2022-09-03T03:13:04;99071.46;;;22.08;73.50
46642;BME280;32370;41.864;-88.124;2022-09-03T03:15:32;99075.40;;;21.92;74.41
46642;BME280;32370;41.864;-88.124;2022-09-03T03:18:01;99084.63;;;21.27;77.40
46642;BME280;32370;41.864;-88.124;2022-09-03T03:20:28;99087.91;;;21.55;78.39
46642;BME280;32370;41.864;-88.124;2022-09-03T03:22:56;99087.32;;;21.29;77.30
46642;BME280;32370;41.864;-88.124;2022-09-03T03:25:23;99080.80;;;21.65;76.47
46642;BME280;32370;41.864;-88.124;2022-09-03T03:27:54;99080.16;;;21.66;76.59
46642;BME280;32370;41.864;-88.124;2022-09-03T03:30:22;99082.23;;;21.77;77.16
46642;BME280;32370;41.864;-88.124;2022-09-03T03:32:52;99086.54;;;21.85;76.97
46642;BME280;32370;41.864;-88.124;2022-09-03T03:35:20;99092.65;;;21.74;76.78
46642;BME280;32370;41.864;-88.124;2022-09-03T03:37:49;99102.22;;;21.45;78.35
46642;BME280;32370;41.864;-88.124;2022-09-03T03:40:17;99105.87;;;21.37;78.70
46642;BME280;32370;41.864;-88.124;2022-09-03T03:42:45;99110.53;;;21.57;77.69
46642;BME280;32370;41.864;-88.124;2022-09-03T03:45:13;99113.41;;;21.66;76.89
46642;BME280;32370;41.864;-88.124;2022-09-03T03:47:40;99116.33;;;21.64;77.09
46642;BME280;32370;41.864;-88.124;2022-09-03T03:50:08;99115.90;;;22.07;77.45
46642;BME280;32370;41.864;-88.124;2022-09-03T03:52:37;99117.32;;;21.83;77.30
46642;BME280;32370;41.864;-88.124;2022-09-03T03:55:05;99117.74;;;21.88;77.05
46642;BME280;32370;41.864;-88.124;2022-09-03T03:57:33;99120.35;;;21.57;77.33
46642;BME280;32370;41.864;-88.124;2022-09-03T04:00:01;99125.91;;;21.90;77.01
46642;BME280;32370;41.864;-88.124;2022-09-03T04:02:29;99130.80;;;21.68;76.94
46642;BME280;32370;41.864;-88.124;2022-09-03T04:04:57;99138.82;;;21.70;77.00
46642;BME280;32370;41.864;-88.124;2022-09-03T04:07:25;99145.77;;;21.68;77.29
46642;BME280;32370;41.864;-88.124;2022-09-03T04:09:53;99149.97;;;21.61;77.61
46642;BME280;32370;41.864;-88.124;2022-09-03T04:12:21;99148.15;;;21.65;77.42
46642;BME280;32370;41.864;-88.124;2022-09-03T04:14:49;99147.50;;;21.63;77.53
46642;BME280;32370;41.864;-88.124;2022-09-03T04:17:16;99146.12;;;21.71;77.11
46642;BME280;32370;41.864;-88.124;2022-09-03T04:19:44;99148.41;;;21.72;76.99
46642;BME280;32370;41.864;-88.124;2022-09-03T04:22:11;99149.15;;;21.71;76.90
46642;BME280;32370;41.864;-88.124;2022-09-03T04:24:39;99148.39;;;21.78;76.75
46642;BME280;32370;41.864;-88.124;2022-09-03T04:27:07;99151.88;;;21.79;76.56
46642;BME280;32370;41.864;-88.124;2022-09-03T04:29:35;99151.80;;;21.83;76.35
46642;BME280;32370;41.864;-88.124;2022-09-03T04:32:03;99156.32;;;21.81;76.52
46642;BME280;32370;41.864;-88.124;2022-09-03T04:34:31;99156.13;;;21.98;76.82
46642;BME280;32370;41.864;-88.124;2022-09-03T04:36:59;99155.68;;;22.04;76.35
46642;BME280;32370;41.864;-88.124;2022-09-03T04:39:26;99157.40;;;22.09;76.14
46642;BME280;32370;41.864;-88.124;2022-09-03T04:41:54;99156.57;;;21.76;76.45
46642;BME280;32370;41.864;-88.124;2022-09-03T04:44:22;99160.00;;;21.80;76.23
46642;BME280;32370;41.864;-88.124;2022-09-03T04:46:49;99160.07;;;22.03;75.78
46642;BME280;32370;41.864;-88.124;2022-09-03T04:49:17;99158.74;;;22.00;75.56
46642;BME280;32370;41.864;-88.124;2022-09-03T04:51:45;99161.18;;;21.66;76.13
46642;BME280;32370;41.864;-88.124;2022-09-03T04:54:12;99164.06;;;21.61;76.24
46642;BME280;32370;41.864;-88.124;2022-09-03T04:56:40;99167.98;;;21.59;76.42
46642;BME280;32370;41.864;-88.124;2022-09-03T04:59:08;99163.90;;;21.44;77.10
46642;BME280;32370;41.864;-88.124;2022-09-03T05:01:37;99163.69;;;21.42;77.20
46642;BME280;32370;41.864;-88.124;2022-09-03T05:04:07;99163.83;;;21.79;76.56
46642;BME280;32370;41.864;-88.124;2022-09-03T05:06:35;99166.02;;;21.80;76.08
46642;BME280;32370;41.864;-88.124;2022-09-03T05:09:04;99164.34;;;21.59;77.18
46642;BME280;32370;41.864;-88.124;2022-09-03T05:11:33;99169.69;;;21.22;78.17
46642;BME280;32370;41.864;-88.124;2022-09-03T05:14:01;99169.12;;;21.39;78.38
46642;BME280;32370;41.864;-88.124;2022-09-03T05:16:30;99166.91;;;21.38;78.42
46642;BME280;32370;41.864;-88.124;2022-09-03T05:18:59;99164.46;;;21.38;78.38
46642;BME280;32370;41.864;-88.124;2022-09-03T05:21:27;99165.97;;;21.34;78.86
46642;BME280;32370;41.864;-88.124;2022-09-03T05:23:56;99164.11;;;21.37;79.03
46642;BME280;32370;41.864;-88.124;2022-09-03T05:26:26;99161.75;;;21.27;79.69
46642;BME280;32370;41.864;-88.124;2022-09-03T05:28:55;99163.17;;;21.34;79.38
46642;BME280;32370;41.864;-88.124;2022-09-03T05:31:25;99162.84;;;21.65;79.24
46642;BME280;32370;41.864;-88.124;2022-09-03T05:33:55;99164.22;;;21.32;79.76
46642;BME280;32370;41.864;-88.124;2022-09-03T05:36:25;99163.94;;;21.20;79.62
46642;BME280;32370;41.864;-88.124;2022-09-03T05:38:53;99169.01;;;21.47;79.32
46642;BME280;32370;41.864;-88.124;2022-09-03T05:41:22;99170.69;;;21.44;79.68
46642;BME280;32370;41.864;-88.124;2022-09-03T05:43:51;99174.13;;;21.31;79.57
46642;BME280;32370;41.864;-88.124;2022-09-03T05:46:20;99172.19;;;21.77;79.93
46642;BME280;32370;41.864;-88.124;2022-09-03T05:48:49;99169.81;;;21.72;80.12
46642;BME280;32370;41.864;-88.124;2022-09-03T05:51:17;99167.04;;;21.47;79.91
46642;BME280;32370;41.864;-88.124;2022-09-03T05:53:46;99165.65;;;21.35;80.46
46642;BME280;32370;41.864;-88.124;2022-09-03T05:56:16;99162.31;;;21.81;79.74
46642;BME280;32370;41.864;-88.124;2022-09-03T05:58:46;99164.88;;;21.19;80.05
46642;BME280;32370;41.864;-88.124;2022-09-03T06:01:15;99160.30;;;21.29;80.54
46642;BME280;32370;41.864;-88.124;2022-09-03T06:03:44;99158.64;;;21.35;80.45
46642;BME280;32370;41.864;-88.124;2022-09-03T06:06:13;99152.64;;;21.78;79.72
46642;BME280;32370;41.864;-88.124;2022-09-03T06:08:42;99146.48;;;21.75;79.80
46642;BME280;32370;41.864;-88.124;2022-09-03T06:11:10;99144.26;;;21.74;79.75
46642;BME280;32370;41.864;-88.124;2022-09-03T06:13:38;99139.92;;;21.41;80.04
46642;BME280;32370;41.864;-88.124;2022-09-03T06:16:07;99145.60;;;21.31;80.32
46642;BME280;32370;41.864;-88.124;2022-09-03T06:18:35;99143.93;;;21.60;80.31
46642;BME280;32370;41.864;-88.124;2022-09-03T06:21:05;99141.71;;;21.23;80.83
46642;BME280;32370;41.864;-88.124;2022-09-03T06:23:34;99141.03;;;21.59;80.45
46642;BME280;32370;41.864;-88.124;2022-09-03T06:26:04;99143.91;;;21.03;81.81
46642;BME280;32370;41.864;-88.124;2022-09-03T06:28:33;99144.97;;;21.32;81.55
46642;BME280;32370;41.864;-88.124;2022-09-03T06:31:03;99145.84;;;21.33;81.32
46642;BME280;32370;41.864;-88.124;2022-09-03T06:33:32;99147.62;;;21.17;80.71
46642;BME280;32370;41.864;-88.124;2022-09-03T06:36:02;99148.12;;;21.37;80.88
46642;BME280;32370;41.864;-88.124;2022-09-03T06:38:32;99155.90;;;21.10;81.10
46642;BME280;32370;41.864;-88.124;2022-09-03T06:41:02;99159.26;;;21.30;81.22
46642;BME280;32370;41.864;-88.124;2022-09-03T06:43:32;99154.02;;;21.53;80.70
46642;BME280;32370;41.864;-88.124;2022-09-03T06:46:02;99146.57;;;21.14;81.52
46642;BME280;32370;41.864;-88.124;2022-09-03T06:48:32;99143.37;;;21.01;81.91
46642;BME280;32370;41.864;-88.124;2022-09-03T06:51:02;99144.99;;;21.05;82.03
46642;BME280;32370;41.864;-88.124;2022-09-03T06:53:32;99139.98;;;21.02;82.59
46642;BME280;32370;41.864;-88.124;2022-09-03T06:56:02;99138.16;;;20.98;83.12
46642;BME280;32370;41.864;-88.124;2022-09-03T06:58:32;99134.09;;;21.11;82.66
46642;BME280;32370;41.864;-88.124;2022-09-03T07:01:02;99137.98;;;21.15;82.77
46642;BME280;32370;41.864;-88.124;2022-09-03T07:03:30;99139.31;;;21.22;82.65
46642;BME280;32370;41.864;-88.124;2022-09-03T07:06:00;99140.34;;;21.23;82.30
46642;BME280;32370;41.864;-88.124;2022-09-03T07:08:28;99133.16;;;21.15;82.70
46642;BME280;32370;41.864;-88.124;2022-09-03T07:10:56;99134.75;;;21.20;82.54
46642;BME280;32370;41.864;-88.124;2022-09-03T07:13:23;99134.68;;;21.34;82.15
46642;BME280;32370;41.864;-88.124;2022-09-03T07:15:59;99137.92;;;21.34;82.19
46642;BME280;32370;41.864;-88.124;2022-09-03T07:18:27;99135.89;;;21.05;83.45
46642;BME280;32370;41.864;-88.124;2022-09-03T07:20:58;99140.34;;;21.05;83.69
46642;BME280;32370;41.864;-88.124;2022-09-03T07:23:27;99145.54;;;20.88;84.39
46642;BME280;32370;41.864;-88.124;2022-09-03T07:25:56;99154.75;;;20.97;83.87
46642;BME280;32370;41.864;-88.124;2022-09-03T07:28:25;99154.46;;;21.00;84.02
46642;BME280;32370;41.864;-88.124;2022-09-03T07:30:59;99161.32;;;20.84;84.89
46642;BME280;32370;41.864;-88.124;2022-09-03T07:33:28;99165.83;;;20.72;85.32
46642;BME280;32370;41.864;-88.124;2022-09-03T07:36:02;99166.71;;;21.41;84.37
46642;BME280;32370;41.864;-88.124;2022-09-03T07:38:31;99169.73;;;20.97;84.24
46642;BME280;32370;41.864;-88.124;2022-09-03T07:40:59;99172.14;;;21.04;84.97
46642;BME280;32370;41.864;-88.124;2022-09-03T07:43:27;99171.35;;;20.91;84.95
46642;BME280;32370;41.864;-88.124;2022-09-03T07:45:55;99174.60;;;20.87;84.93
46642;BME280;32370;41.864;-88.124;2022-09-03T07:48:23;99168.78;;;21.05;85.08
46642;BME280;32370;41.864;-88.124;2022-09-03T07:50:51;99162.50;;;21.44;84.17
46642;BME280;32370;41.864;-88.124;2022-09-03T07:53:19;99160.23;;;21.03;83.78
46642;BME280;32370;41.864;-88.124;2022-09-03T07:55:47;99162.95;;;20.81;84.63
46642;BME280;32370;41.864;-88.124;2022-09-03T07:58:15;99167.67;;;20.82;84.80
46642;BME280;32370;41.864;-88.124;2022-09-03T08:00:43;99165.48;;;20.91;85.36
46642;BME280;32370;41.864;-88.124;2022-09-03T08:03:11;99163.80;;;20.58;85.85
46642;BME280;32370;41.864;-88.124;2022-09-03T08:05:39;99164.77;;;20.67;85.33
46642;BME280;32370;41.864;-88.124;2022-09-03T08:08:06;99160.64;;;20.85;84.81
46642;BME280;32370;41.864;-88.124;2022-09-03T08:10:35;99156.84;;;20.64;85.31
46642;BME280;32370;41.864;-88.124;2022-09-03T08:13:03;99156.49;;;21.30;84.27
46642;BME280;32370;41.864;-88.124;2022-09-03T08:15:32;99166.36;;;20.78;84.44
46642;BME280;32370;41.864;-88.124;2022-09-03T08:18:00;99166.63;;;20.57;85.46
46642;BME280;32370;41.864;-88.124;2022-09-03T08:20:28;99160.64;;;20.50;85.25
46642;BME280;32370;41.864;-88.124;2022-09-03T08:23:00;99153.88;;;20.86;85.80
46642;BME280;32370;41.864;-88.124;2022-09-03T08:25:29;99157.07;;;20.71;86.56
46642;BME280;32370;41.864;-88.124;2022-09-03T08:27:58;99161.26;;;20.59;85.49
46642;BME280;32370;41.864;-88.124;2022-09-03T08:30:27;99159.94;;;20.75;85.54
46642;BME280;32370;41.864;-88.124;2022-09-03T08:32:55;99161.93;;;20.96;85.84
46642;BME280;32370;41.864;-88.124;2022-09-03T08:35:22;99163.56;;;20.44;85.87
46642;BME280;32370;41.864;-88.124;2022-09-03T08:37:50;99160.69;;;20.80;86.17
46642;BME280;32370;41.864;-88.124;2022-09-03T08:40:18;99156.25;;;20.75;86.42
46642;BME280;32370;41.864;-88.124;2022-09-03T08:42:56;99155.30;;;20.35;87.58
46642;BME280;32370;41.864;-88.124;2022-09-03T08:45:28;99155.00;;;20.75;86.88
46642;BME280;32370;41.864;-88.124;2022-09-03T08:48:02;99153.01;;;20.65;86.60
46642;BME280;32370;41.864;-88.124;2022-09-03T08:50:37;99152.55;;;20.91;85.26
46642;BME280;32370;41.864;-88.124;2022-09-03T08:53:11;99152.89;;;20.85;86.26
46642;BME280;32370;41.864;-88.124;2022-09-03T08:55:48;99156.56;;;21.00;85.67
46642;BME280;32370;41.864;-88.124;2022-09-03T08:58:18;99153.09;;;20.71;87.21
46642;BME280;32370;41.864;-88.124;2022-09-03T09:00:52;99146.40;;;20.96;86.10
46642;BME280;32370;41.864;-88.124;2022-09-03T09:03:40;99142.57;;;20.99;85.65
46642;BME280;32370;41.864;-88.124;2022-09-03T09:06:15;99146.17;;;20.70;85.68
46642;BME280;32370;41.864;-88.124;2022-09-03T09:08:55;99147.03;;;20.50;86.35
46642;BME280;32370;41.864;-88.124;2022-09-03T09:11:32;99144.53;;;20.43;86.73
46642;BME280;32370;41.864;-88.124;2022-09-03T09:14:12;99141.10;;;20.60;87.10
46642;BME280;32370;41.864;-88.124;2022-09-03T09:16:49;99141.93;;;20.20;86.94
46642;BME280;32370;41.864;-88.124;2022-09-03T09:19:33;99147.35;;;20.24;86.67
46642;BME280;32370;41.864;-88.124;2022-09-03T09:22:09;99144.30;;;20.46;86.34
46642;BME280;32370;41.864;-88.124;2022-09-03T09:24:41;99144.04;;;20.59;86.64
46642;BME280;32370;41.864;-88.124;2022-09-03T09:27:13;99142.89;;;20.51;87.39
46642;BME280;32370;41.864;-88.124;2022-09-03T09:29:41;99141.40;;;20.09;88.98
46642;BME280;32370;41.864;-88.124;2022-09-03T09:32:10;99135.75;;;20.35;87.93
46642;BME280;32370;41.864;-88.124;2022-09-03T09:34:39;99129.36;;;20.31;89.04
46642;BME280;32370;41.864;-88.124;2022-09-03T09:37:10;99130.71;;;20.39;88.72
46642;BME280;32370;41.864;-88.124;2022-09-03T09:39:40;99132.80;;;20.47;88.34
46642;BME280;32370;41.864;-88.124;2022-09-03T09:42:10;99132.75;;;20.45;88.59
46642;BME280;32370;41.864;-88.124;2022-09-03T09:44:40;99130.98;;;20.64;87.81
46642;BME280;32370;41.864;-88.124;2022-09-03T09:47:12;99133.41;;;20.58;88.39
46642;BME280;32370;41.864;-88.124;2022-09-03T09:49:52;99134.30;;;20.20;91.04
46642;BME280;32370;41.864;-88.124;2022-09-03T09:52:22;99131.34;;;20.22;92.05
46642;BME280;32370;41.864;-88.124;2022-09-03T09:54:52;99131.35;;;20.84;90.14
46642;BME280;32370;41.864;-88.124;2022-09-03T09:57:23;99140.28;;;20.48;90.27
46642;BME280;32370;41.864;-88.124;2022-09-03T10:00:03;99142.88;;;20.47;90.52
46642;BME280;32370;41.864;-88.124;2022-09-03T10:02:34;99145.23;;;20.48;90.56
46642;BME280;32370;41.864;-88.124;2022-09-03T10:05:14;99143.46;;;20.49;90.65
46642;BME280;32370;41.864;-88.124;2022-09-03T10:07:52;99145.17;;;20.55;90.43
46642;BME280;32370;41.864;-88.124;2022-09-03T10:10:21;99148.90;;;20.70;90.13
46642;BME280;32370;41.864;-88.124;2022-09-03T10:12:52;99153.42;;;20.72;90.05
46642;BME280;32370;41.864;-88.124;2022-09-03T10:15:27;99151.17;;;20.15;92.78
46642;BME280;32370;41.864;-88.124;2022-09-03T10:18:02;99148.50;;;20.44;92.99
46642;BME280;32370;41.864;-88.124;2022-09-03T10:20:35;99147.88;;;20.47;92.38
46642;BME280;32370;41.864;-88.124;2022-09-03T10:23:12;99149.08;;;20.23;93.88
46642;BME280;32370;41.864;-88.124;2022-09-03T10:25:46;99148.59;;;20.31;93.99
46642;BME280;32370;41.864;-88.124;2022-09-03T10:28:21;99152.47;;;20.39;93.52
46642;BME280;32370;41.864;-88.124;2022-09-03T10:31:04;99149.26;;;19.87;95.24
46642;BME280;32370;41.864;-88.124;2022-09-03T10:33:37;99148.57;;;20.34;94.09
46642;BME280;32370;41.864;-88.124;2022-09-03T10:36:14;99147.21;;;20.53;92.67
46642;BME280;32370;41.864;-88.124;2022-09-03T10:38:50;99148.88;;;20.61;92.04
46642;BME280;32370;41.864;-88.124;2022-09-03T10:41:29;99151.14;;;20.50;92.01
46642;BME280;32370;41.864;-88.124;2022-09-03T10:44:14;99149.80;;;20.45;92.37
46642;BME280;32370;41.864;-88.124;2022-09-03T10:46:57;99148.49;;;20.49;92.13
46642;BME280;32370;41.864;-88.124;2022-09-03T10:49:43;99154.41;;;20.40;92.66
46642;BME280;32370;41.864;-88.124;2022-09-03T10:52:19;99151.41;;;20.64;91.49
46642;BME280;32370;41.864;-88.124;2022-09-03T10:55:03;99148.60;;;20.54;91.87
46642;BME280;32370;41.864;-88.124;2022-09-03T10:57:41;99149.65;;;20.72;90.75
46642;BME280;32370;41.864;-88.124;2022-09-03T11:00:14;99147.37;;;20.39;91.39
46642;BME280;32370;41.864;-88.124;2022-09-03T11:03:41;99148.79;;;20.99;92.30
46642;BME280;32370;41.864;-88.124;2022-09-03T11:06:15;99152.15;;;20.60;91.88
46642;BME280;32370;41.864;-88.124;2022-09-03T11:08:50;99157.07;;;20.35;92.87
46642;BME280;32370;41.864;-88.124;2022-09-03T11:11:23;99164.21;;;20.07;93.15
46642;BME280;32370;41.864;-88.124;2022-09-03T11:13:57;99174.89;;;19.99;93.59
46642;BME280;32370;41.864;-88.124;2022-09-03T11:16:31;99184.72;;;20.31;93.33
46642;BME280;32370;41.864;-88.124;2022-09-03T11:19:04;99186.46;;;20.37;93.00
46642;BME280;32370;41.864;-88.124;2022-09-03T11:21:36;99193.39;;;20.49;92.37
46642;BME280;32370;41.864;-88.124;2022-09-03T11:24:10;99192.16;;;19.94;92.28
46642;BME280;32370;41.864;-88.124;2022-09-03T11:26:41;99197.69;;;20.23;92.17
46642;BME280;32370;41.864;-88.124;2022-09-03T11:29:17;99198.82;;;20.07;92.47
46642;BME280;32370;41.864;-88.124;2022-09-03T11:31:55;99202.34;;;20.09;92.59
46642;BME280;32370;41.864;-88.124;2022-09-03T11:34:29;99203.15;;;20.09;92.68
46642;BME280;32370;41.864;-88.124;2022-09-03T11:37:13;99209.20;;;20.06;92.94
46642;BME280;32370;41.864;-88.124;2022-09-03T11:39:42;99211.36;;;20.37;92.75
46642;BME280;32370;41.864;-88.124;2022-09-03T11:42:11;99211.27;;;20.16;92.80
46642;BME280;32370;41.864;-88.124;2022-09-03T11:44:50;99215.16;;;20.30;93.69
46642;BME280;32370;41.864;-88.124;2022-09-03T11:47:22;99212.19;;;20.22;93.06
46642;BME280;32370;41.864;-88.124;2022-09-03T11:49:52;99217.75;;;20.19;93.22
46642;BME280;32370;41.864;-88.124;2022-09-03T11:52:31;99216.60;;;20.05;92.96
46642;BME280;32370;41.864;-88.124;2022-09-03T11:55:05;99216.87;;;20.52;92.94
46642;BME280;32370;41.864;-88.124;2022-09-03T11:57:39;99222.76;;;20.31;92.85
46642;BME280;32370;41.864;-88.124;2022-09-03T12:00:10;99230.56;;;20.18;92.81
46642;BME280;32370;41.864;-88.124;2022-09-03T12:02:43;99236.45;;;20.48;92.69
46642;BME280;32370;41.864;-88.124;2022-09-03T12:05:20;99244.15;;;20.71;91.96
46642;BME280;32370;41.864;-88.124;2022-09-03T12:08:05;99252.20;;;20.58;92.16
46642;BME280;32370;41.864;-88.124;2022-09-03T12:10:43;99254.87;;;20.87;91.64
46642;BME280;32370;41.864;-88.124;2022-09-03T12:13:26;99256.14;;;20.38;91.52
46642;BME280;32370;41.864;-88.124;2022-09-03T12:16:22;99259.17;;;20.59;91.59
46642;BME280;32370;41.864;-88.124;2022-09-03T12:19:02;99263.30;;;20.70;91.39
46642;BME280;32370;41.864;-88.124;2022-09-03T12:21:37;99260.18;;;20.79;91.12
46642;BME280;32370;41.864;-88.124;2022-09-03T12:24:05;99257.74;;;20.92;90.99
46642;BME280;32370;41.864;-88.124;2022-09-03T12:26:39;99260.60;;;20.89;90.29
46642;BME280;32370;41.864;-88.124;2022-09-03T12:29:21;99263.39;;;20.95;90.90
46642;BME280;32370;41.864;-88.124;2022-09-03T12:31:50;99259.90;;;20.89;90.03
46642;BME280;32370;41.864;-88.124;2022-09-03T12:34:19;99259.57;;;20.96;89.55
46642;BME280;32370;41.864;-88.124;2022-09-03T12:36:49;99261.76;;;20.99;89.12
46642;BME280;32370;41.864;-88.124;2022-09-03T12:39:21;99263.97;;;21.06;88.86
46642;BME280;32370;41.864;-88.124;2022-09-03T12:41:55;99261.22;;;21.08;88.21
46642;BME280;32370;41.864;-88.124;2022-09-03T12:44:26;99261.17;;;21.52;87.98
46642;BME280;32370;41.864;-88.124;2022-09-03T12:47:01;99260.69;;;21.12;88.05
46642;BME280;32370;41.864;-88.124;2022-09-03T12:49:34;99256.64;;;21.55;87.56
46642;BME280;32370;41.864;-88.124;2022-09-03T12:52:08;99261.58;;;21.66;87.22
46642;BME280;32370;41.864;-88.124;2022-09-03T12:54:43;99268.51;;;21.28;85.90
46642;BME280;32370;41.864;-88.124;2022-09-03T12:57:17;99272.76;;;21.70;85.64
46642;BME280;32370;41.864;-88.124;2022-09-03T12:59:48;99275.26;;;22.22;84.98
46642;BME280;32370;41.864;-88.124;2022-09-03T13:02:21;99281.02;;;22.17;84.26
46642;BME280;32370;41.864;-88.124;2022-09-03T13:04:51;99280.58;;;22.66;82.48